createdAt,value
2018-07-22T00:00:15.924Z,99.90
2018-07-22T00:02:44.373Z,99.90
2018-07-22T00:05:12.847Z,99.90
2018-07-22T00:07:41.270Z,99.90
2018-07-22T00:10:30.009Z,99.90
2018-07-22T00:12:59.394Z,99.90
2018-07-22T00:17:55.974Z,99.90
2018-07-22T00:20:24.459Z,99.90
2018-07-22T00:22:52.888Z,99.90
2018-07-22T00:25:21.341Z,99.90
2018-07-22T00:27:49.817Z,99.90
2018-07-22T00:30:18.277Z,99.90
2018-07-22T00:32:46.701Z,99.90
2018-07-22T00:35:15.148Z,99.90
2018-07-22T00:37:43.567Z,99.90
2018-07-22T00:40:12.704Z,99.90
2018-07-22T00:42:41.133Z,99.90
2018-07-22T00:45:14.290Z,99.90
2018-07-22T00:47:43.248Z,99.90
2018-07-22T00:50:11.717Z,99.90
2018-07-22T00:55:08.893Z,99.90
2018-07-22T01:00:06.100Z,99.90
2018-07-22T01:02:34.441Z,99.90
2018-07-22T01:05:02.917Z,99.90
2018-07-22T01:09:59.470Z,99.90
2018-07-22T01:14:56.038Z,99.90
2018-07-22T01:17:24.489Z,99.90
2018-07-22T01:19:52.930Z,99.90
2018-07-22T01:22:21.345Z,99.90
2018-07-22T01:24:49.931Z,99.90
2018-07-22T01:27:18.361Z,99.90
2018-07-22T01:29:46.790Z,99.90
2018-07-22T01:34:43.391Z,99.90
2018-07-22T01:37:11.788Z,99.90
2018-07-22T01:39:40.216Z,99.90
2018-07-22T01:42:08.641Z,99.90
2018-07-22T01:44:37.057Z,99.90
2018-07-22T01:47:05.465Z,99.90
2018-07-22T01:49:33.910Z,99.90
2018-07-22T01:52:02.345Z,99.90
2018-07-22T01:54:30.800Z,99.90
2018-07-22T01:56:59.265Z,99.90
2018-07-22T02:01:55.895Z,99.90
2018-07-22T02:04:24.590Z,99.90
2018-07-22T02:06:53.065Z,99.90
2018-07-22T02:09:21.537Z,99.90
2018-07-22T02:11:50.011Z,99.90
2018-07-22T02:14:18.433Z,99.90
2018-07-22T02:16:46.929Z,99.90
2018-07-22T02:19:15.365Z,99.90
2018-07-22T02:21:43.828Z,99.90
2018-07-22T02:24:12.302Z,99.90
2018-07-22T02:26:40.789Z,99.90
2018-07-22T02:29:09.217Z,99.90
2018-07-22T02:31:37.699Z,99.90
2018-07-22T02:34:06.209Z,99.90
2018-07-22T02:36:34.678Z,99.90
2018-07-22T02:39:03.330Z,99.90
2018-07-22T02:41:31.821Z,99.90
2018-07-22T02:44:00.256Z,99.90
2018-07-22T02:46:28.717Z,99.90
2018-07-22T02:48:57.175Z,99.90
2018-07-22T02:51:25.661Z,99.90
2018-07-22T02:53:54.153Z,99.90
2018-07-22T02:56:22.629Z,99.90
2018-07-22T02:58:51.077Z,99.90
2018-07-22T03:01:19.603Z,99.90
2018-07-22T03:03:48.070Z,99.90
2018-07-22T03:06:16.563Z,99.90
2018-07-22T03:08:45.014Z,99.90
2018-07-22T03:11:13.489Z,99.90
2018-07-22T03:13:41.937Z,99.90
2018-07-22T03:16:10.410Z,99.90
2018-07-22T03:18:38.858Z,99.90
2018-07-22T03:21:07.333Z,99.90
2018-07-22T03:23:35.789Z,99.90
2018-07-22T03:26:04.262Z,99.90
2018-07-22T03:28:32.730Z,99.90
2018-07-22T03:33:29.337Z,99.90
2018-07-22T03:35:57.895Z,99.90
2018-07-22T03:38:26.349Z,99.90
2018-07-22T03:43:22.933Z,99.90
2018-07-22T03:45:51.390Z,99.90
2018-07-22T03:48:19.877Z,99.90
2018-07-22T03:50:48.346Z,99.90
2018-07-22T03:53:16.801Z,99.90
2018-07-22T03:55:45.266Z,99.90
2018-07-22T03:58:13.709Z,99.90
2018-07-22T04:00:42.170Z,99.90
2018-07-22T04:03:10.604Z,99.90
2018-07-22T04:05:39.061Z,99.90
2018-07-22T04:08:07.510Z,99.90
2018-07-22T04:10:35.969Z,99.90
2018-07-22T04:13:04.410Z,99.90
2018-07-22T04:15:32.859Z,99.90
2018-07-22T04:18:01.285Z,99.90
2018-07-22T04:20:29.737Z,99.90
2018-07-22T04:22:58.238Z,99.90
2018-07-22T04:25:26.682Z,99.90
2018-07-22T04:27:55.153Z,99.90
2018-07-22T04:30:23.596Z,99.90
2018-07-22T04:32:52.038Z,99.90
2018-07-22T04:35:20.463Z,99.90
2018-07-22T04:37:48.923Z,99.90
2018-07-22T04:40:17.350Z,99.90
2018-07-22T04:42:45.797Z,99.90
2018-07-22T04:45:14.217Z,99.90
2018-07-22T04:47:42.677Z,99.90
2018-07-22T04:50:11.101Z,99.90
2018-07-22T04:52:39.601Z,99.90
2018-07-22T04:55:08.038Z,99.90
2018-07-22T04:57:36.505Z,99.90
2018-07-22T05:00:05.722Z,99.90
2018-07-22T05:02:34.183Z,99.90
2018-07-22T05:05:02.610Z,99.90
2018-07-22T05:07:31.050Z,99.90
2018-07-22T05:09:59.466Z,99.90
2018-07-22T05:12:27.915Z,99.90
2018-07-22T05:14:56.338Z,99.90
2018-07-22T05:17:24.787Z,99.90
2018-07-22T05:19:53.221Z,99.90
2018-07-22T05:22:21.661Z,99.90
2018-07-22T05:24:50.075Z,99.90
2018-07-22T05:29:46.662Z,99.90
2018-07-22T05:32:15.111Z,99.90
2018-07-22T05:37:11.669Z,99.90
2018-07-22T05:39:40.110Z,99.90
2018-07-22T05:42:08.624Z,99.90
2018-07-22T05:44:37.054Z,99.90
2018-07-22T05:47:05.766Z,99.90
2018-07-22T05:49:34.220Z,99.90
2018-07-22T05:52:02.737Z,99.90
2018-07-22T05:56:59.338Z,99.90
2018-07-22T05:59:27.783Z,99.90
2018-07-22T06:01:56.221Z,99.90
2018-07-22T06:04:24.666Z,99.90
2018-07-22T06:06:53.117Z,99.90
2018-07-22T06:09:21.590Z,99.90
2018-07-22T06:11:50.161Z,99.90
2018-07-22T06:14:18.512Z,99.90
2018-07-22T06:16:47.011Z,99.90
2018-07-22T06:19:15.410Z,99.90
2018-07-22T06:24:12.001Z,99.90
2018-07-22T06:26:40.484Z,99.90
2018-07-22T06:29:08.924Z,99.90
2018-07-22T06:31:37.381Z,99.90
2018-07-22T06:34:05.979Z,99.90
2018-07-22T06:36:34.481Z,99.90
2018-07-22T06:39:03.550Z,99.90
2018-07-22T06:41:32.026Z,99.90
2018-07-22T06:44:00.495Z,99.90
2018-07-22T06:46:28.932Z,99.90
2018-07-22T06:48:57.398Z,99.90
2018-07-22T06:51:25.848Z,99.90
2018-07-22T06:53:54.301Z,99.90
2018-07-22T06:56:22.733Z,99.90
2018-07-22T06:58:51.190Z,99.90
2018-07-22T07:01:19.626Z,99.90
2018-07-22T07:03:48.087Z,99.90
2018-07-22T07:06:16.529Z,99.90
2018-07-22T07:08:44.987Z,99.90
2018-07-22T07:11:36.534Z,99.90
2018-07-22T07:14:05.055Z,99.90
2018-07-22T07:16:33.512Z,99.90
2018-07-22T07:19:01.974Z,99.90
2018-07-22T07:21:30.669Z,99.90
2018-07-22T07:26:27.274Z,99.90
2018-07-22T07:28:55.755Z,99.90
2018-07-22T07:31:24.185Z,99.90
2018-07-22T07:36:20.782Z,99.90
2018-07-22T07:38:49.242Z,99.90
2018-07-22T07:41:17.678Z,99.90
2018-07-22T07:43:46.178Z,99.90
2018-07-22T07:46:14.647Z,99.90
2018-07-22T07:48:43.134Z,99.90
2018-07-22T07:51:11.572Z,99.90
2018-07-22T07:53:40.046Z,99.90
2018-07-22T07:56:08.521Z,99.90
2018-07-22T07:58:36.997Z,99.90
2018-07-22T08:01:05.465Z,99.90
2018-07-22T08:03:33.929Z,99.90
2018-07-22T08:06:02.359Z,99.90
2018-07-22T08:08:31.205Z,99.90
2018-07-22T08:10:59.657Z,99.90
2018-07-22T08:13:28.129Z,99.90
2018-07-22T08:15:57.032Z,99.90
2018-07-22T08:18:25.538Z,99.90
2018-07-22T08:20:54.077Z,99.90
2018-07-22T08:23:22.556Z,99.90
2018-07-22T08:25:50.994Z,99.90
2018-07-22T08:29:26.850Z,99.90
2018-07-22T08:31:55.365Z,99.90
2018-07-22T08:34:23.881Z,99.90
2018-07-22T08:39:21.615Z,99.90
2018-07-22T08:41:50.849Z,99.90
2018-07-22T08:46:47.486Z,99.90
2018-07-22T08:49:15.941Z,99.90
2018-07-22T08:51:44.417Z,99.90
2018-07-22T08:54:12.885Z,99.90
2018-07-22T08:56:41.363Z,99.90
2018-07-22T08:59:09.850Z,99.90
2018-07-22T09:01:38.338Z,99.90
2018-07-22T09:04:06.849Z,99.90
2018-07-22T09:06:35.370Z,99.90
2018-07-22T09:09:06.507Z,99.90
2018-07-22T09:11:34.962Z,99.90
2018-07-22T09:14:03.530Z,99.90
2018-07-22T09:16:31.977Z,99.90
2018-07-22T09:19:00.521Z,99.90
2018-07-22T09:23:57.099Z,99.90
2018-07-22T09:26:25.562Z,99.90
2018-07-22T09:28:54.102Z,99.90
2018-07-22T09:31:22.597Z,99.90
2018-07-22T09:33:51.057Z,99.90
2018-07-22T09:36:19.593Z,99.90
2018-07-22T09:38:47.998Z,99.90
2018-07-22T09:41:16.431Z,99.90
2018-07-22T09:43:44.870Z,99.90
2018-07-22T09:46:13.311Z,99.90
2018-07-22T09:48:41.792Z,99.90
2018-07-22T09:51:10.233Z,99.90
2018-07-22T09:53:38.724Z,99.90
2018-07-22T09:56:07.170Z,99.90
2018-07-22T09:58:35.708Z,99.90
2018-07-22T10:01:04.078Z,99.90
2018-07-22T10:03:32.981Z,99.90
2018-07-22T10:06:01.417Z,99.90
2018-07-22T10:08:29.873Z,99.90
2018-07-22T10:10:58.314Z,99.90
2018-07-22T10:13:26.765Z,99.90
2018-07-22T10:15:55.210Z,99.90
2018-07-22T10:18:23.702Z,99.90
2018-07-22T10:20:52.158Z,99.90
2018-07-22T10:23:20.646Z,99.90
2018-07-22T10:25:49.081Z,99.90
2018-07-22T10:28:17.566Z,99.90
2018-07-22T10:30:46.087Z,99.90
2018-07-22T10:33:14.537Z,99.90
2018-07-22T10:35:43.040Z,99.90
2018-07-22T10:38:11.490Z,99.90
2018-07-22T10:43:08.138Z,99.90
2018-07-22T10:45:36.610Z,99.90
2018-07-22T10:50:33.275Z,99.90
2018-07-22T10:55:29.884Z,99.90
2018-07-22T10:57:58.338Z,99.90
2018-07-22T11:00:26.813Z,99.90
2018-07-22T11:02:55.265Z,99.90
2018-07-22T11:05:23.745Z,99.90
2018-07-22T11:10:20.350Z,99.90
2018-07-22T11:12:48.803Z,99.90
2018-07-22T11:15:17.288Z,99.90
2018-07-22T11:17:45.781Z,99.90
2018-07-22T11:20:14.253Z,99.90
2018-07-22T11:22:42.737Z,99.90
2018-07-22T11:25:11.226Z,99.90
2018-07-22T11:27:39.709Z,99.90
2018-07-22T11:30:08.201Z,99.90
2018-07-22T11:32:36.653Z,99.90
2018-07-22T11:35:05.225Z,99.90
2018-07-22T11:37:33.676Z,99.90
2018-07-22T11:40:02.159Z,99.90
2018-07-22T11:44:58.776Z,99.90
2018-07-22T11:47:27.217Z,99.90
2018-07-22T11:49:55.698Z,99.90
2018-07-22T11:52:24.165Z,99.90
2018-07-22T11:54:52.634Z,99.90
2018-07-22T11:59:49.245Z,99.90
2018-07-22T12:02:17.689Z,99.90
2018-07-22T12:04:46.161Z,99.90
2018-07-22T12:07:14.601Z,99.90
2018-07-22T12:09:43.102Z,99.90
2018-07-22T12:12:11.633Z,99.90
2018-07-22T12:14:40.085Z,99.90
2018-07-22T12:17:08.549Z,99.90
2018-07-22T12:19:37.013Z,99.90
2018-07-22T12:22:05.494Z,99.90
2018-07-22T12:24:33.966Z,99.90
2018-07-22T12:27:02.450Z,99.90
2018-07-22T12:29:30.927Z,99.90
2018-07-22T12:31:59.397Z,99.90
2018-07-22T12:34:27.947Z,99.90
2018-07-22T12:36:56.345Z,99.90
2018-07-22T12:39:24.821Z,99.90
2018-07-22T12:41:53.282Z,99.90
2018-07-22T12:44:21.833Z,99.90
2018-07-22T12:49:18.454Z,99.90
2018-07-22T12:51:46.923Z,99.90
2018-07-22T12:54:15.383Z,99.90
2018-07-22T12:56:43.871Z,99.90
2018-07-22T12:59:12.327Z,99.90
2018-07-22T13:01:40.822Z,99.90
2018-07-22T13:04:09.342Z,99.90
2018-07-22T13:06:37.849Z,99.90
2018-07-22T13:09:08.433Z,99.90
2018-07-22T13:11:37.181Z,99.90
2018-07-22T13:14:05.799Z,99.90
2018-07-22T13:16:34.285Z,99.90
2018-07-22T13:19:02.744Z,99.90
2018-07-22T13:21:31.261Z,99.90
2018-07-22T13:23:59.734Z,99.90
2018-07-22T13:26:28.240Z,99.90
2018-07-22T13:31:24.834Z,99.90
2018-07-22T13:33:53.281Z,99.90
2018-07-22T13:38:49.850Z,99.90
2018-07-22T13:41:18.318Z,99.90
2018-07-22T13:46:14.921Z,99.90
2018-07-22T13:48:43.372Z,99.90
2018-07-22T13:51:11.821Z,99.90
2018-07-22T13:53:40.246Z,99.90
2018-07-22T13:56:08.718Z,99.90
2018-07-22T13:58:37.169Z,99.90
2018-07-22T14:03:33.751Z,99.90
2018-07-22T14:06:02.230Z,99.90
2018-07-22T14:08:30.654Z,99.90
2018-07-22T14:10:59.125Z,99.90
2018-07-22T14:13:27.561Z,99.90
2018-07-22T14:15:56.061Z,99.90
2018-07-22T14:18:24.489Z,99.90
2018-07-22T14:23:21.079Z,99.90
2018-07-22T14:25:49.528Z,99.90
2018-07-22T14:28:17.981Z,99.90
2018-07-22T14:30:46.499Z,99.70
2018-07-22T14:33:15.002Z,98.50
2018-07-22T14:35:43.509Z,99.20
2018-07-22T14:38:12.033Z,99.60
2018-07-22T14:43:08.850Z,99.40
2018-07-22T14:45:37.322Z,97.30
2018-07-22T14:48:05.798Z,95.30
2018-07-22T14:50:34.316Z,91.20
2018-07-22T14:53:02.782Z,82.90
2018-07-22T14:55:31.261Z,86.80
2018-07-22T14:57:59.725Z,85.80
2018-07-22T15:00:28.349Z,85.90
2018-07-22T15:05:24.997Z,89.00
2018-07-22T15:07:53.429Z,89.10
2018-07-22T15:10:21.938Z,86.80
2018-07-22T15:12:50.402Z,91.10
2018-07-22T15:15:18.857Z,88.00
2018-07-22T15:17:47.316Z,91.90
2018-07-22T15:20:15.785Z,93.10
2018-07-22T15:22:44.265Z,93.20
2018-07-22T15:25:12.710Z,92.60
2018-07-22T15:27:41.198Z,91.30
2018-07-22T15:30:09.697Z,91.70
2018-07-22T15:32:38.310Z,87.30
2018-07-22T15:35:06.771Z,91.30
2018-07-22T15:40:03.556Z,93.20
2018-07-22T15:42:32.028Z,95.10
2018-07-22T15:45:00.472Z,96.20
2018-07-22T15:47:28.936Z,95.90
2018-07-22T15:49:57.390Z,99.90
2018-07-22T15:52:25.849Z,99.90
2018-07-22T15:54:54.274Z,99.90
2018-07-22T15:57:22.725Z,99.90
2018-07-22T15:59:51.161Z,99.90
2018-07-22T16:04:47.739Z,99.90
2018-07-22T16:07:16.198Z,99.90
2018-07-22T16:12:13.032Z,99.90
2018-07-22T16:14:41.470Z,99.90
2018-07-22T16:17:09.949Z,99.90
2018-07-22T16:19:38.378Z,99.90
2018-07-22T16:22:06.846Z,99.90
2018-07-22T16:24:35.284Z,99.90
2018-07-22T16:27:03.794Z,99.90
2018-07-22T16:29:32.253Z,99.90
2018-07-22T16:32:00.693Z,99.90
2018-07-22T16:34:29.110Z,99.90
2018-07-22T16:36:57.540Z,99.90
2018-07-22T16:39:25.961Z,99.90
2018-07-22T16:41:54.402Z,99.90
2018-07-22T16:44:22.836Z,99.90
2018-07-22T16:46:51.281Z,99.90
2018-07-22T16:49:19.706Z,99.90
2018-07-22T16:51:48.147Z,99.90
2018-07-22T16:54:16.577Z,99.90
2018-07-22T16:56:45.006Z,99.90
2018-07-22T16:59:13.418Z,99.90
2018-07-22T17:01:41.879Z,99.90
2018-07-22T17:04:10.309Z,99.90
2018-07-22T17:06:38.745Z,99.90
2018-07-22T17:09:10.662Z,99.90
2018-07-22T17:11:39.151Z,99.90
2018-07-22T17:14:07.654Z,99.90
2018-07-22T17:16:36.113Z,99.90
2018-07-22T17:19:04.568Z,99.90
2018-07-22T17:21:33.045Z,99.90
2018-07-22T17:24:01.495Z,99.90
2018-07-22T17:26:29.976Z,99.90
2018-07-22T17:28:58.409Z,99.90
2018-07-22T17:33:54.994Z,99.90
2018-07-22T17:36:23.457Z,99.90
2018-07-22T17:38:51.954Z,99.90
2018-07-22T17:41:20.402Z,99.90
2018-07-22T17:43:48.889Z,99.90
2018-07-22T17:46:17.445Z,99.90
2018-07-22T17:48:45.941Z,99.90
2018-07-22T17:53:42.517Z,99.90
2018-07-22T17:56:10.957Z,99.90
2018-07-22T17:58:39.429Z,99.90
2018-07-22T18:01:07.861Z,99.90
2018-07-22T18:03:36.339Z,99.90
2018-07-22T18:06:04.805Z,99.90
2018-07-22T18:08:33.303Z,99.90
2018-07-22T18:11:01.763Z,99.90
2018-07-22T18:13:30.244Z,99.90
2018-07-22T18:15:58.720Z,99.90
2018-07-22T18:18:27.189Z,99.90
2018-07-22T18:20:55.653Z,99.90
2018-07-22T18:23:24.142Z,99.90
2018-07-22T18:25:52.609Z,99.90
2018-07-22T18:28:21.125Z,99.90
2018-07-22T18:30:49.586Z,99.90
2018-07-22T18:35:46.227Z,99.90
2018-07-22T18:38:14.737Z,99.90
2018-07-22T18:40:43.198Z,99.90
2018-07-22T18:45:39.814Z,99.90
2018-07-22T18:48:08.322Z,99.90
2018-07-22T18:50:36.794Z,99.90
2018-07-22T18:53:05.332Z,99.90
2018-07-22T18:55:37.180Z,99.90
2018-07-22T18:58:10.873Z,99.90
2018-07-22T19:00:46.602Z,99.90
2018-07-22T19:03:15.261Z,99.90
2018-07-22T19:05:43.738Z,99.90
2018-07-22T19:08:12.225Z,99.90
2018-07-22T19:10:40.703Z,99.90
2018-07-22T19:13:09.217Z,99.90
2018-07-22T19:15:37.682Z,99.90
2018-07-22T19:18:06.201Z,99.90
2018-07-22T19:20:34.666Z,99.90
2018-07-22T19:23:03.137Z,99.90
2018-07-22T19:27:59.781Z,99.90
2018-07-22T19:30:28.260Z,99.90
2018-07-22T19:32:56.729Z,99.90
2018-07-22T19:35:25.173Z,99.90
2018-07-22T19:37:59.511Z,99.90
2018-07-22T19:40:28.020Z,99.90
2018-07-22T19:42:56.486Z,99.90
2018-07-22T19:45:24.928Z,99.90
2018-07-22T19:47:53.387Z,99.90
2018-07-22T19:50:21.846Z,99.90
2018-07-22T19:52:50.340Z,99.90
2018-07-22T19:57:47.211Z,99.90
2018-07-22T20:00:15.637Z,99.90
2018-07-22T20:02:44.096Z,99.90
2018-07-22T20:05:12.549Z,99.90
2018-07-22T20:07:41.011Z,99.90
2018-07-22T20:10:09.488Z,99.90
2018-07-22T20:12:37.955Z,99.90
2018-07-22T20:15:06.398Z,99.90
2018-07-22T20:17:34.821Z,99.90
2018-07-22T20:20:03.299Z,99.90
2018-07-22T20:22:31.729Z,99.90
2018-07-22T20:25:00.187Z,99.90
2018-07-22T20:27:28.668Z,99.90
2018-07-22T20:29:57.112Z,99.90
2018-07-22T20:32:25.560Z,99.90
2018-07-22T20:34:54.059Z,99.90
2018-07-22T20:37:23.510Z,99.90
2018-07-22T20:39:52.010Z,99.90
2018-07-22T20:42:20.482Z,99.90
2018-07-22T20:44:49.487Z,99.90
2018-07-22T20:47:17.942Z,99.90
2018-07-22T20:49:46.423Z,99.90
2018-07-22T20:52:14.865Z,99.90
2018-07-22T20:54:43.343Z,99.90
2018-07-22T20:57:11.806Z,99.90
2018-07-22T20:59:40.318Z,99.90
2018-07-22T21:02:08.796Z,99.90
2018-07-22T21:04:37.285Z,99.90
2018-07-22T21:07:05.766Z,99.90
2018-07-22T21:13:11.103Z,99.90
2018-07-22T21:15:39.589Z,99.90
2018-07-22T21:18:08.099Z,99.90
2018-07-22T21:23:04.764Z,99.90
2018-07-22T21:25:33.249Z,99.90
2018-07-22T21:28:01.729Z,99.90
2018-07-22T21:30:30.226Z,99.90
2018-07-22T21:32:58.717Z,99.90
2018-07-22T21:35:27.246Z,99.90
2018-07-22T21:40:23.914Z,99.90
2018-07-22T21:42:52.342Z,99.90
2018-07-22T21:45:20.843Z,99.90
2018-07-22T21:47:49.326Z,99.90
2018-07-22T21:50:17.869Z,99.90
2018-07-22T21:52:46.325Z,99.90
2018-07-22T21:55:14.835Z,99.90
2018-07-22T21:57:43.290Z,99.90
2018-07-22T22:00:21.430Z,99.90
2018-07-22T22:02:49.906Z,99.90
2018-07-22T22:05:18.401Z,99.90
2018-07-22T22:07:46.863Z,99.90
2018-07-22T22:10:15.392Z,99.90
2018-07-22T22:12:43.866Z,99.90
2018-07-22T22:15:19.369Z,99.90
2018-07-22T22:17:47.810Z,99.90
2018-07-22T22:20:16.278Z,99.90
2018-07-22T22:22:44.738Z,99.90
2018-07-22T22:25:13.229Z,99.90
2018-07-22T22:27:41.701Z,99.90
2018-07-22T22:30:11.565Z,99.90
2018-07-22T22:32:40.026Z,99.90
2018-07-22T22:35:08.558Z,99.90
2018-07-22T22:37:36.993Z,99.90
2018-07-22T22:40:05.642Z,99.90
2018-07-22T22:42:34.086Z,99.90
2018-07-22T22:45:02.549Z,99.90
2018-07-22T22:47:31.071Z,99.90
2018-07-22T22:49:59.531Z,99.90
2018-07-22T22:52:28.086Z,99.90
2018-07-22T22:54:56.698Z,99.90
2018-07-22T22:57:25.162Z,99.90
2018-07-22T22:59:53.634Z,99.90
2018-07-22T23:02:22.109Z,99.90
2018-07-22T23:04:50.587Z,99.90
2018-07-22T23:07:19.061Z,99.90
2018-07-22T23:12:15.910Z,99.90
2018-07-22T23:17:12.517Z,99.90
2018-07-22T23:19:40.965Z,99.90
2018-07-22T23:22:09.401Z,99.90
2018-07-22T23:24:37.861Z,99.90
2018-07-22T23:27:06.341Z,99.90
2018-07-22T23:29:34.816Z,99.90
2018-07-22T23:32:03.282Z,99.90
2018-07-22T23:34:31.726Z,99.90
2018-07-22T23:39:28.318Z,99.90
2018-07-22T23:41:56.792Z,99.90
2018-07-22T23:44:25.214Z,99.90
2018-07-22T23:46:53.682Z,99.90
2018-07-22T23:49:22.165Z,99.90
2018-07-22T23:51:50.630Z,99.90
2018-07-22T23:54:19.069Z,99.90
2018-07-22T23:56:47.555Z,99.90
2018-07-22T23:59:15.972Z,99.90
